sensor_id;sensor_type;location;lat;lon;timestamp;pressure;altitude;pressure_sealevel;temperature;humidity
10518;BME280;5307;42.548;22.968;2023-12-28T00:00:44;94948.56;;;1.17;100.00
10518;BME280;5307;42.548;22.968;2023-12-28T00:03:11;94949.16;;;1.30;100.00
10518;BME280;5307;42.548;22.968;2023-12-28T00:05:37;94950.13;;;1.18;100.00
10518;BME280;5307;42.548;22.968;2023-12-28T00:08:06;94955.38;;;1.11;100.00
10518;BME280;5307;42.548;22.968;2023-12-28T00:10:32;94951.53;;;1.12;100.00
10518;BME280;5307;42.548;22.968;2023-12-28T00:13:01;94955.00;;;1.12;100.00
10518;BME280;5307;42.548;22.968;2023-12-28T00:15:27;94962.66;;;1.33;100.00
10518;BME280;5307;42.548;22.968;2023-12-28T00:17:54;94959.84;;;1.26;100.00
10518;BME280;5307;42.548;22.968;2023-12-28T00:20:21;94963.63;;;1.22;100.00
10518;BME280;5307;42.548;22.968;2023-12-28T00:22:49;94964.84;;;1.01;100.00
10518;BME280;5307;42.548;22.968;2023-12-28T00:25:19;94968.16;;;1.17;100.00
10518;BME280;5307;42.548;22.968;2023-12-28T00:27:45;94969.31;;;1.16;100.00
10518;BME280;5307;42.548;22.968;2023-12-28T00:30:15;94970.44;;;0.93;100.00
10518;BME280;5307;42.548;22.968;2023-12-28T00:32:43;94966.03;;;1.04;100.00
10518;BME280;5307;42.548;22.968;2023-12-28T00:35:11;94973.00;;;1.08;100.00
10518;BME280;5307;42.548;22.968;2023-12-28T00:37:38;94974.03;;;1.00;100.00
10518;BME280;5307;42.548;22.968;2023-12-28T00:40:06;94971.88;;;0.86;100.00
10518;BME280;5307;42.548;22.968;2023-12-28T00:42:34;94978.56;;;0.96;100.00
10518;BME280;5307;42.548;22.968;2023-12-28T00:45:01;94977.78;;;0.96;100.00
10518;BME280;5307;42.548;22.968;2023-12-28T00:47:28;94973.69;;;1.02;100.00
10518;BME280;5307;42.548;22.968;2023-12-28T00:49:55;94978.56;;;0.96;100.00
10518;BME280;5307;42.548;22.968;2023-12-28T00:52:22;94978.09;;;0.91;100.00
10518;BME280;5307;42.548;22.968;2023-12-28T00:54:49;94984.06;;;1.03;100.00
10518;BME280;5307;42.548;22.968;2023-12-28T00:57:18;94996.13;;;0.90;100.00
10518;BME280;5307;42.548;22.968;2023-12-28T00:59:47;94994.31;;;0.75;100.00
10518;BME280;5307;42.548;22.968;2023-12-28T01:02:13;94998.97;;;0.78;100.00
10518;BME280;5307;42.548;22.968;2023-12-28T01:04:40;94999.69;;;0.75;100.00
10518;BME280;5307;42.548;22.968;2023-12-28T01:07:07;95001.66;;;0.78;100.00
10518;BME280;5307;42.548;22.968;2023-12-28T01:09:34;94995.31;;;0.67;100.00
10518;BME280;5307;42.548;22.968;2023-12-28T01:12:00;94994.59;;;0.89;100.00
10518;BME280;5307;42.548;22.968;2023-12-28T01:14:27;94997.84;;;0.79;100.00
10518;BME280;5307;42.548;22.968;2023-12-28T01:16:55;94992.16;;;0.61;100.00
10518;BME280;5307;42.548;22.968;2023-12-28T01:19:25;95000.41;;;0.52;100.00
10518;BME280;5307;42.548;22.968;2023-12-28T01:21:56;94992.41;;;0.56;100.00
10518;BME280;5307;42.548;22.968;2023-12-28T01:24:23;94995.38;;;0.70;100.00
10518;BME280;5307;42.548;22.968;2023-12-28T01:26:52;94987.44;;;0.77;100.00
10518;BME280;5307;42.548;22.968;2023-12-28T01:29:19;94996.53;;;0.50;100.00
10518;BME280;5307;42.548;22.968;2023-12-28T01:31:45;94992.50;;;0.59;100.00
10518;BME280;5307;42.548;22.968;2023-12-28T01:34:16;95003.63;;;0.58;100.00
10518;BME280;5307;42.548;22.968;2023-12-28T01:37:16;95002.63;;;0.47;100.00
10518;BME280;5307;42.548;22.968;2023-12-28T01:39:43;94988.53;;;0.53;100.00
10518;BME280;5307;42.548;22.968;2023-12-28T01:42:09;94984.44;;;0.59;100.00
10518;BME280;5307;42.548;22.968;2023-12-28T01:45:08;94989.50;;;0.65;100.00
10518;BME280;5307;42.548;22.968;2023-12-28T01:47:34;94996.31;;;0.58;100.00
10518;BME280;5307;42.548;22.968;2023-12-28T01:50:05;94997.44;;;0.38;100.00
10518;BME280;5307;42.548;22.968;2023-12-28T01:52:55;95000.00;;;0.50;100.00
10518;BME280;5307;42.548;22.968;2023-12-28T01:55:30;95003.59;;;0.39;100.00
10518;BME280;5307;42.548;22.968;2023-12-28T01:57:58;95008.25;;;0.42;100.00
10518;BME280;5307;42.548;22.968;2023-12-28T02:00:25;95009.63;;;0.51;100.00
10518;BME280;5307;42.548;22.968;2023-12-28T02:02:55;95004.78;;;0.41;100.00
10518;BME280;5307;42.548;22.968;2023-12-28T02:05:27;95003.59;;;0.39;100.00
10518;BME280;5307;42.548;22.968;2023-12-28T02:07:54;94997.81;;;0.37;100.00
10518;BME280;5307;42.548;22.968;2023-12-28T02:10:21;94995.28;;;0.44;100.00
10518;BME280;5307;42.548;22.968;2023-12-28T02:12:48;94995.28;;;0.44;100.00
10518;BME280;5307;42.548;22.968;2023-12-28T02:15:16;94989.69;;;0.33;100.00
10518;BME280;5307;42.548;22.968;2023-12-28T02:17:52;94989.69;;;0.33;100.00
10518;BME280;5307;42.548;22.968;2023-12-28T02:20:21;94994.06;;;0.22;100.00
10518;BME280;5307;42.548;22.968;2023-12-28T02:22:53;94990.78;;;0.13;100.00
10518;BME280;5307;42.548;22.968;2023-12-28T02:25:26;94998.72;;;0.25;100.00
10518;BME280;5307;42.548;22.968;2023-12-28T02:27:52;95000.44;;;0.33;100.00
10518;BME280;5307;42.548;22.968;2023-12-28T02:30:21;94977.44;;;0.16;100.00
10518;BME280;5307;42.548;22.968;2023-12-28T02:33:01;94981.97;;;0.32;100.00
10518;BME280;5307;42.548;22.968;2023-12-28T02:35:40;94982.03;;;0.35;100.00
10518;BME280;5307;42.548;22.968;2023-12-28T02:38:13;94980.81;;;0.52;100.00
10518;BME280;5307;42.548;22.968;2023-12-28T02:40:43;94991.38;;;0.22;100.00
10518;BME280;5307;42.548;22.968;2023-12-28T02:43:11;94992.22;;;0.26;100.00
10518;BME280;5307;42.548;22.968;2023-12-28T02:45:38;94978.50;;;0.12;100.00
10518;BME280;5307;42.548;22.968;2023-12-28T02:48:08;94985.88;;;0.15;100.00
10518;BME280;5307;42.548;22.968;2023-12-28T02:50:35;94976.50;;;0.28;100.00
10518;BME280;5307;42.548;22.968;2023-12-28T02:53:03;94975.19;;;0.18;100.00
10518;BME280;5307;42.548;22.968;2023-12-28T02:55:29;94979.44;;;0.19;100.00
10518;BME280;5307;42.548;22.968;2023-12-28T02:57:58;94974.66;;;0.13;100.00
10518;BME280;5307;42.548;22.968;2023-12-28T03:00:25;94969.78;;;-0.01;100.00
10518;BME280;5307;42.548;22.968;2023-12-28T03:02:52;94969.75;;;0.15;100.00
10518;BME280;5307;42.548;22.968;2023-12-28T03:05:22;94973.56;;;0.33;100.00
10518;BME280;5307;42.548;22.968;2023-12-28T03:07:48;94970.06;;;0.13;100.00
10518;BME280;5307;42.548;22.968;2023-12-28T03:10:18;94965.34;;;0.07;100.00
10518;BME280;5307;42.548;22.968;2023-12-28T03:12:45;94966.28;;;0.14;100.00
10518;BME280;5307;42.548;22.968;2023-12-28T03:15:13;94967.69;;;0.08;100.00
10518;BME280;5307;42.548;22.968;2023-12-28T03:17:43;94971.00;;;0.21;100.00
10518;BME280;5307;42.548;22.968;2023-12-28T03:20:10;94975.69;;;0.24;100.00
10518;BME280;5307;42.548;22.968;2023-12-28T03:22:37;94972.44;;;0.15;100.00
10518;BME280;5307;42.548;22.968;2023-12-28T03:25:05;94974.97;;;0.27;100.00
10518;BME280;5307;42.548;22.968;2023-12-28T03:27:32;94969.59;;;0.27;100.00
10518;BME280;5307;42.548;22.968;2023-12-28T03:29:58;94973.22;;;0.15;100.00
10518;BME280;5307;42.548;22.968;2023-12-28T03:32:29;94968.97;;;0.14;100.00
10518;BME280;5307;42.548;22.968;2023-12-28T03:34:58;94971.00;;;0.21;100.00
10518;BME280;5307;42.548;22.968;2023-12-28T03:37:25;94965.50;;;0.33;100.00
10518;BME280;5307;42.548;22.968;2023-12-28T03:39:52;94961.97;;;0.10;100.00
10518;BME280;5307;42.548;22.968;2023-12-28T03:42:19;94960.91;;;0.14;100.00
10518;BME280;5307;42.548;22.968;2023-12-28T03:44:49;94960.50;;;0.32;100.00
10518;BME280;5307;42.548;22.968;2023-12-28T03:47:15;94955.75;;;0.44;100.00
10518;BME280;5307;42.548;22.968;2023-12-28T03:49:44;94962.41;;;0.31;100.00
10518;BME280;5307;42.548;22.968;2023-12-28T03:52:10;94962.88;;;0.37;100.00
10518;BME280;5307;42.548;22.968;2023-12-28T03:54:37;94958.56;;;0.32;100.00
10518;BME280;5307;42.548;22.968;2023-12-28T03:57:04;94960.03;;;0.49;100.00
10518;BME280;5307;42.548;22.968;2023-12-28T03:59:31;94955.13;;;0.32;100.00
10518;BME280;5307;42.548;22.968;2023-12-28T04:01:57;94960.56;;;0.35;100.00
10518;BME280;5307;42.548;22.968;2023-12-28T04:04:24;94964.66;;;0.29;100.00
10518;BME280;5307;42.548;22.968;2023-12-28T04:06:52;94971.13;;;0.28;100.00
10518;BME280;5307;42.548;22.968;2023-12-28T04:09:19;94971.38;;;0.19;100.00
10518;BME280;5307;42.548;22.968;2023-12-28T04:11:46;94969.31;;;0.13;100.00
10518;BME280;5307;42.548;22.968;2023-12-28T04:14:13;94968.44;;;-0.11;100.00
10518;BME280;5307;42.548;22.968;2023-12-28T04:16:40;94966.72;;;-0.19;100.00
10518;BME280;5307;42.548;22.968;2023-12-28T04:19:06;94969.16;;;-0.14;100.00
10518;BME280;5307;42.548;22.968;2023-12-28T04:21:33;94961.34;;;-0.38;100.00
10518;BME280;5307;42.548;22.968;2023-12-28T04:24:03;94969.00;;;-0.56;100.00
10518;BME280;5307;42.548;22.968;2023-12-28T04:26:30;94965.34;;;-0.48;100.00
10518;BME280;5307;42.548;22.968;2023-12-28T04:28:57;94965.19;;;-0.55;100.00
10518;BME280;5307;42.548;22.968;2023-12-28T04:31:23;94974.44;;;-0.52;100.00
10518;BME280;5307;42.548;22.968;2023-12-28T04:33:52;94975.59;;;-0.34;100.00
10518;BME280;5307;42.548;22.968;2023-12-28T04:36:19;94971.38;;;-0.35;100.00
10518;BME280;5307;42.548;22.968;2023-12-28T04:38:45;94974.66;;;-0.26;100.00
10518;BME280;5307;42.548;22.968;2023-12-28T04:41:15;94974.53;;;-0.14;100.00
10518;BME280;5307;42.548;22.968;2023-12-28T04:43:42;94968.41;;;-0.30;100.00
10518;BME280;5307;42.548;22.968;2023-12-28T04:46:08;94968.31;;;-0.34;100.00
10518;BME280;5307;42.548;22.968;2023-12-28T04:48:35;94970.25;;;-0.34;100.00
10518;BME280;5307;42.548;22.968;2023-12-28T04:51:02;94962.88;;;-0.37;100.00
10518;BME280;5307;42.548;22.968;2023-12-28T04:53:31;94973.31;;;-0.16;100.00
10518;BME280;5307;42.548;22.968;2023-12-28T04:56:00;94979.31;;;-0.04;100.00
10518;BME280;5307;42.548;22.968;2023-12-28T04:58:28;94977.34;;;-0.07;100.00
10518;BME280;5307;42.548;22.968;2023-12-28T05:00:57;94976.75;;;-0.16;100.00
10518;BME280;5307;42.548;22.968;2023-12-28T05:03:24;94985.38;;;-0.26;100.00
10518;BME280;5307;42.548;22.968;2023-12-28T05:05:55;94982.88;;;-0.35;100.00
10518;BME280;5307;42.548;22.968;2023-12-28T05:08:21;94985.34;;;-0.61;100.00
10518;BME280;5307;42.548;22.968;2023-12-28T05:10:48;94984.81;;;-0.51;100.00
10518;BME280;5307;42.548;22.968;2023-12-28T05:13:15;94982.47;;;-0.52;100.00
10518;BME280;5307;42.548;22.968;2023-12-28T05:15:43;94982.31;;;-0.60;100.00
10518;BME280;5307;42.548;22.968;2023-12-28T05:18:10;94988.84;;;-0.25;100.00
10518;BME280;5307;42.548;22.968;2023-12-28T05:20:36;94985.75;;;-0.43;100.00
10518;BME280;5307;42.548;22.968;2023-12-28T05:23:05;94984.28;;;-0.56;100.00
10518;BME280;5307;42.548;22.968;2023-12-28T05:25:31;94992.19;;;-0.64;100.00
10518;BME280;5307;42.548;22.968;2023-12-28T05:27:58;95000.31;;;-0.76;100.00
10518;BME280;5307;42.548;22.968;2023-12-28T05:30:25;95009.22;;;-0.72;100.00
10518;BME280;5307;42.548;22.968;2023-12-28T05:32:53;94998.03;;;-0.58;100.00
10518;BME280;5307;42.548;22.968;2023-12-28T05:35:20;94998.59;;;-0.68;100.00
10518;BME280;5307;42.548;22.968;2023-12-28T05:37:46;94996.25;;;-0.54;100.00
10518;BME280;5307;42.548;22.968;2023-12-28T05:40:13;94999.63;;;-0.41;100.00
10518;BME280;5307;42.548;22.968;2023-12-28T05:42:40;95004.56;;;-0.75;100.00
10518;BME280;5307;42.548;22.968;2023-12-28T05:45:08;94992.69;;;-0.58;100.00
10518;BME280;5307;42.548;22.968;2023-12-28T05:47:35;94997.53;;;-0.64;100.00
10518;BME280;5307;42.548;22.968;2023-12-28T05:50:03;95001.25;;;-0.52;100.00
10518;BME280;5307;42.548;22.968;2023-12-28T05:52:31;94996.78;;;-0.29;100.00
10518;BME280;5307;42.548;22.968;2023-12-28T05:54:58;95003.25;;;-0.49;100.00
10518;BME280;5307;42.548;22.968;2023-12-28T05:57:24;95006.09;;;-0.58;100.00
10518;BME280;5307;42.548;22.968;2023-12-28T05:59:55;95008.09;;;-1.02;100.00
10518;BME280;5307;42.548;22.968;2023-12-28T06:02:22;95005.03;;;-1.16;100.00
10518;BME280;5307;42.548;22.968;2023-12-28T06:04:48;95012.72;;;-1.31;100.00
10518;BME280;5307;42.548;22.968;2023-12-28T06:07:16;95011.63;;;-1.42;100.00
10518;BME280;5307;42.548;22.968;2023-12-28T06:09:43;95020.94;;;-1.24;100.00
10518;BME280;5307;42.548;22.968;2023-12-28T06:12:11;95009.34;;;-1.28;100.00
10518;BME280;5307;42.548;22.968;2023-12-28T06:14:38;95015.66;;;-1.36;100.00
10518;BME280;5307;42.548;22.968;2023-12-28T06:17:04;95012.25;;;-1.48;100.00
10518;BME280;5307;42.548;22.968;2023-12-28T06:19:32;95017.50;;;-1.52;100.00
10518;BME280;5307;42.548;22.968;2023-12-28T06:21:58;95014.38;;;-1.26;100.00
10518;BME280;5307;42.548;22.968;2023-12-28T06:24:26;95018.78;;;-1.18;100.00
10518;BME280;5307;42.548;22.968;2023-12-28T06:26:53;95016.50;;;-1.32;100.00
10518;BME280;5307;42.548;22.968;2023-12-28T06:29:19;95023.50;;;-1.27;100.00
10518;BME280;5307;42.548;22.968;2023-12-28T06:31:46;95018.34;;;-1.20;100.00
10518;BME280;5307;42.548;22.968;2023-12-28T06:34:12;95013.66;;;-1.39;100.00
10518;BME280;5307;42.548;22.968;2023-12-28T06:36:40;95029.00;;;-1.24;100.00
10518;BME280;5307;42.548;22.968;2023-12-28T06:39:08;95016.00;;;-1.37;100.00
10518;BME280;5307;42.548;22.968;2023-12-28T06:41:36;95018.63;;;-1.09;100.00
10518;BME280;5307;42.548;22.968;2023-12-28T06:44:03;95020.06;;;-0.84;100.00
10518;BME280;5307;42.548;22.968;2023-12-28T06:46:30;95021.25;;;-0.66;100.00
10518;BME280;5307;42.548;22.968;2023-12-28T06:48:57;95017.53;;;-0.61;100.00
10518;BME280;5307;42.548;22.968;2023-12-28T06:51:24;95011.38;;;-0.62;100.00
10518;BME280;5307;42.548;22.968;2023-12-28T06:53:51;95012.88;;;-0.80;100.00
10518;BME280;5307;42.548;22.968;2023-12-28T06:56:18;95020.56;;;-0.63;100.00
10518;BME280;5307;42.548;22.968;2023-12-28T06:58:47;95014.25;;;-0.70;100.00
10518;BME280;5307;42.548;22.968;2023-12-28T07:01:14;95024.09;;;-0.74;100.00
10518;BME280;5307;42.548;22.968;2023-12-28T07:03:41;95025.16;;;-0.79;100.00
10518;BME280;5307;42.548;22.968;2023-12-28T07:06:08;95022.88;;;-0.61;100.00
10518;BME280;5307;42.548;22.968;2023-12-28T07:08:35;95028.78;;;-0.55;100.00
10518;BME280;5307;42.548;22.968;2023-12-28T07:11:01;95015.81;;;-0.69;100.00
10518;BME280;5307;42.548;22.968;2023-12-28T07:13:28;95028.09;;;-0.68;100.00
10518;BME280;5307;42.548;22.968;2023-12-28T07:15:57;95026.25;;;-0.48;100.00
10518;BME280;5307;42.548;22.968;2023-12-28T07:18:24;95022.19;;;-0.58;100.00
10518;BME280;5307;42.548;22.968;2023-12-28T07:20:50;95023.31;;;-0.43;100.00
10518;BME280;5307;42.548;22.968;2023-12-28T07:23:17;95015.44;;;-0.36;100.00
10518;BME280;5307;42.548;22.968;2023-12-28T07:25:44;95010.88;;;-0.51;100.00
10518;BME280;5307;42.548;22.968;2023-12-28T07:28:11;95018.41;;;-0.41;100.00
10518;BME280;5307;42.548;22.968;2023-12-28T07:30:38;95018.03;;;-0.40;100.00
10518;BME280;5307;42.548;22.968;2023-12-28T07:33:06;95021.13;;;0.52;100.00
10518;BME280;5307;42.548;22.968;2023-12-28T07:35:33;95022.63;;;0.49;100.00
10518;BME280;5307;42.548;22.968;2023-12-28T07:38:00;95019.41;;;1.25;100.00
10518;BME280;5307;42.548;22.968;2023-12-28T07:40:26;95027.53;;;1.51;100.00
10518;BME280;5307;42.548;22.968;2023-12-28T07:42:53;95021.31;;;1.70;100.00
10518;BME280;5307;42.548;22.968;2023-12-28T07:45:20;95026.06;;;1.80;100.00
10518;BME280;5307;42.548;22.968;2023-12-28T07:47:49;95015.41;;;1.87;100.00
10518;BME280;5307;42.548;22.968;2023-12-28T07:50:17;95019.25;;;1.86;100.00
10518;BME280;5307;42.548;22.968;2023-12-28T07:52:44;95014.06;;;2.30;98.66
10518;BME280;5307;42.548;22.968;2023-12-28T07:55:11;95010.84;;;2.51;97.26
10518;BME280;5307;42.548;22.968;2023-12-28T07:57:38;95006.63;;;2.84;94.55
10518;BME280;5307;42.548;22.968;2023-12-28T08:00:07;95012.53;;;2.96;91.59
10518;BME280;5307;42.548;22.968;2023-12-28T08:02:34;95013.13;;;3.16;90.82
10518;BME280;5307;42.548;22.968;2023-12-28T08:05:01;95012.88;;;3.80;88.93
10518;BME280;5307;42.548;22.968;2023-12-28T08:07:29;95012.84;;;3.73;86.94
10518;BME280;5307;42.548;22.968;2023-12-28T08:09:59;95005.22;;;4.51;85.75
10518;BME280;5307;42.548;22.968;2023-12-28T08:12:27;95001.84;;;4.79;83.42
10518;BME280;5307;42.548;22.968;2023-12-28T08:14:54;95006.19;;;4.22;81.98
10518;BME280;5307;42.548;22.968;2023-12-28T08:17:21;94999.25;;;3.62;81.98
10518;BME280;5307;42.548;22.968;2023-12-28T08:19:48;94987.78;;;4.41;80.45
10518;BME280;5307;42.548;22.968;2023-12-28T08:22:14;94993.44;;;5.30;78.46
10518;BME280;5307;42.548;22.968;2023-12-28T08:24:42;94993.84;;;5.75;75.59
10518;BME280;5307;42.548;22.968;2023-12-28T08:27:09;94987.06;;;4.52;76.14
10518;BME280;5307;42.548;22.968;2023-12-28T08:29:39;95003.16;;;4.34;77.37
10518;BME280;5307;42.548;22.968;2023-12-28T08:32:07;94997.97;;;4.80;76.58
10518;BME280;5307;42.548;22.968;2023-12-28T08:34:34;95001.94;;;5.22;76.26
10518;BME280;5307;42.548;22.968;2023-12-28T08:37:01;95003.13;;;5.24;74.89
10518;BME280;5307;42.548;22.968;2023-12-28T08:39:28;94991.88;;;5.19;74.50
10518;BME280;5307;42.548;22.968;2023-12-28T08:41:56;94997.28;;;5.08;73.83
10518;BME280;5307;42.548;22.968;2023-12-28T08:44:24;94987.53;;;4.86;74.14
10518;BME280;5307;42.548;22.968;2023-12-28T08:46:52;94986.09;;;5.24;73.53
10518;BME280;5307;42.548;22.968;2023-12-28T08:49:19;94985.66;;;4.93;73.50
10518;BME280;5307;42.548;22.968;2023-12-28T08:51:47;94978.25;;;4.83;73.33
10518;BME280;5307;42.548;22.968;2023-12-28T08:54:14;94980.28;;;5.89;72.90
10518;BME280;5307;42.548;22.968;2023-12-28T08:56:41;94979.53;;;5.39;72.88
10518;BME280;5307;42.548;22.968;2023-12-28T08:59:10;94970.63;;;5.78;72.73
10518;BME280;5307;42.548;22.968;2023-12-28T09:01:37;94966.34;;;5.87;71.14
10518;BME280;5307;42.548;22.968;2023-12-28T09:04:04;94966.75;;;5.75;72.16
10518;BME280;5307;42.548;22.968;2023-12-28T09:06:31;94964.84;;;5.51;72.46
10518;BME280;5307;42.548;22.968;2023-12-28T09:08:58;94959.41;;;5.40;72.09
10518;BME280;5307;42.548;22.968;2023-12-28T09:11:24;94967.13;;;5.45;72.34
10518;BME280;5307;42.548;22.968;2023-12-28T09:13:53;94963.25;;;5.46;72.68
10518;BME280;5307;42.548;22.968;2023-12-28T09:16:21;94944.66;;;5.73;72.23
10518;BME280;5307;42.548;22.968;2023-12-28T09:18:49;94957.84;;;6.07;71.73
10518;BME280;5307;42.548;22.968;2023-12-28T09:21:19;94956.19;;;6.31;71.16
10518;BME280;5307;42.548;22.968;2023-12-28T09:23:47;94957.31;;;6.47;70.79
10518;BME280;5307;42.548;22.968;2023-12-28T09:26:14;94946.50;;;6.37;70.03
10518;BME280;5307;42.548;22.968;2023-12-28T09:28:40;94941.88;;;6.27;69.39
10518;BME280;5307;42.548;22.968;2023-12-28T09:31:07;94939.03;;;6.59;69.33
10518;BME280;5307;42.548;22.968;2023-12-28T09:33:35;94929.66;;;6.74;68.92
10518;BME280;5307;42.548;22.968;2023-12-28T09:36:04;94924.88;;;6.99;69.38
10518;BME280;5307;42.548;22.968;2023-12-28T09:38:33;94922.34;;;7.78;69.46
10518;BME280;5307;42.548;22.968;2023-12-28T09:41:11;94908.53;;;8.33;68.20
10518;BME280;5307;42.548;22.968;2023-12-28T09:43:45;94906.28;;;7.91;67.58
10518;BME280;5307;42.548;22.968;2023-12-28T09:46:12;94897.41;;;7.83;68.29
10518;BME280;5307;42.548;22.968;2023-12-28T09:48:41;94905.75;;;9.02;67.86
10518;BME280;5307;42.548;22.968;2023-12-28T09:51:10;94886.75;;;8.68;67.66
10518;BME280;5307;42.548;22.968;2023-12-28T09:53:37;94888.03;;;8.25;67.43
10518;BME280;5307;42.548;22.968;2023-12-28T09:56:05;94883.06;;;8.81;67.42
10518;BME280;5307;42.548;22.968;2023-12-28T09:58:33;94874.22;;;9.01;66.79
10518;BME280;5307;42.548;22.968;2023-12-28T10:01:03;94877.88;;;8.90;66.44
10518;BME280;5307;42.548;22.968;2023-12-28T10:03:31;94869.75;;;8.60;68.22
10518;BME280;5307;42.548;22.968;2023-12-28T10:05:59;94860.50;;;9.08;67.05
10518;BME280;5307;42.548;22.968;2023-12-28T10:08:26;94849.00;;;9.90;66.73
10518;BME280;5307;42.548;22.968;2023-12-28T10:10:53;94846.41;;;9.36;65.79
10518;BME280;5307;42.548;22.968;2023-12-28T10:13:20;94844.94;;;9.55;65.45
10518;BME280;5307;42.548;22.968;2023-12-28T10:15:48;94833.38;;;9.47;66.12
10518;BME280;5307;42.548;22.968;2023-12-28T10:18:17;94827.84;;;9.74;66.30
10518;BME280;5307;42.548;22.968;2023-12-28T10:20:49;94812.63;;;9.53;66.68
10518;BME280;5307;42.548;22.968;2023-12-28T10:23:17;94811.75;;;10.20;65.03
10518;BME280;5307;42.548;22.968;2023-12-28T10:25:44;94805.00;;;10.28;63.91
10518;BME280;5307;42.548;22.968;2023-12-28T10:28:11;94800.50;;;10.74;63.93
10518;BME280;5307;42.548;22.968;2023-12-28T10:30:38;94790.75;;;10.56;64.11
10518;BME280;5307;42.548;22.968;2023-12-28T10:33:06;94786.53;;;11.04;63.44
10518;BME280;5307;42.548;22.968;2023-12-28T10:35:32;94785.44;;;10.65;62.87
10518;BME280;5307;42.548;22.968;2023-12-28T10:38:00;94782.34;;;10.47;64.27
10518;BME280;5307;42.548;22.968;2023-12-28T10:40:30;94772.84;;;11.04;63.70
10518;BME280;5307;42.548;22.968;2023-12-28T10:42:58;94775.56;;;11.37;62.78
10518;BME280;5307;42.548;22.968;2023-12-28T10:45:28;94762.59;;;10.76;62.66
10518;BME280;5307;42.548;22.968;2023-12-28T10:48:04;94765.41;;;10.72;62.25
10518;BME280;5307;42.548;22.968;2023-12-28T10:50:37;94763.53;;;11.63;62.36
10518;BME280;5307;42.548;22.968;2023-12-28T10:53:14;94765.31;;;11.41;60.81
10518;BME280;5307;42.548;22.968;2023-12-28T10:55:50;94752.00;;;11.26;62.15
10518;BME280;5307;42.548;22.968;2023-12-28T10:58:24;94748.91;;;11.08;61.82
10518;BME280;5307;42.548;22.968;2023-12-28T11:00:55;94747.00;;;11.38;61.13
10518;BME280;5307;42.548;22.968;2023-12-28T11:03:27;94745.06;;;11.67;61.08
10518;BME280;5307;42.548;22.968;2023-12-28T11:05:56;94735.59;;;11.10;61.14
10518;BME280;5307;42.548;22.968;2023-12-28T11:08:24;94733.06;;;10.87;62.09
10518;BME280;5307;42.548;22.968;2023-12-28T11:10:53;94735.59;;;10.78;62.77
10518;BME280;5307;42.548;22.968;2023-12-28T11:13:21;94728.59;;;10.93;63.28
10518;BME280;5307;42.548;22.968;2023-12-28T11:15:48;94715.31;;;11.98;63.46
10518;BME280;5307;42.548;22.968;2023-12-28T11:18:16;94712.47;;;12.02;62.29
10518;BME280;5307;42.548;22.968;2023-12-28T11:20:44;94707.91;;;11.53;62.81
10518;BME280;5307;42.548;22.968;2023-12-28T11:23:12;94708.97;;;11.43;63.32
10518;BME280;5307;42.548;22.968;2023-12-28T11:25:39;94701.38;;;11.35;62.83
10518;BME280;5307;42.548;22.968;2023-12-28T11:28:11;94693.59;;;11.33;63.01
10518;BME280;5307;42.548;22.968;2023-12-28T11:30:38;94694.94;;;11.70;62.98
10518;BME280;5307;42.548;22.968;2023-12-28T11:33:05;94686.72;;;12.37;61.96
10518;BME280;5307;42.548;22.968;2023-12-28T11:35:34;94691.34;;;12.15;62.19
10518;BME280;5307;42.548;22.968;2023-12-28T11:38:03;94687.06;;;12.01;61.86
10518;BME280;5307;42.548;22.968;2023-12-28T11:40:39;94679.63;;;12.40;62.50
10518;BME280;5307;42.548;22.968;2023-12-28T11:43:20;94679.00;;;11.23;63.06
10518;BME280;5307;42.548;22.968;2023-12-28T11:45:48;94674.41;;;11.49;63.60
10518;BME280;5307;42.548;22.968;2023-12-28T11:48:25;94665.38;;;11.36;63.67
10518;BME280;5307;42.548;22.968;2023-12-28T11:50:56;94664.88;;;11.12;62.27
10518;BME280;5307;42.548;22.968;2023-12-28T11:53:28;94664.28;;;11.34;62.36
10518;BME280;5307;42.548;22.968;2023-12-28T11:55:59;94659.81;;;11.11;61.90
10518;BME280;5307;42.548;22.968;2023-12-28T11:58:29;94662.56;;;11.40;61.68
10518;BME280;5307;42.548;22.968;2023-12-28T12:00:55;94667.22;;;11.84;60.82
10518;BME280;5307;42.548;22.968;2023-12-28T12:03:24;94662.75;;;11.33;61.10
10518;BME280;5307;42.548;22.968;2023-12-28T12:05:52;94664.53;;;11.39;61.91
10518;BME280;5307;42.548;22.968;2023-12-28T12:08:19;94653.09;;;11.57;61.83
10518;BME280;5307;42.548;22.968;2023-12-28T12:10:46;94657.09;;;11.40;62.65
10518;BME280;5307;42.548;22.968;2023-12-28T12:13:13;94654.06;;;11.50;62.10
10518;BME280;5307;42.548;22.968;2023-12-28T12:15:42;94654.13;;;11.34;63.93
10518;BME280;5307;42.548;22.968;2023-12-28T12:18:09;94652.09;;;11.93;64.07
10518;BME280;5307;42.548;22.968;2023-12-28T12:20:36;94656.16;;;12.01;63.78
10518;BME280;5307;42.548;22.968;2023-12-28T12:23:04;94643.81;;;11.67;63.72
10518;BME280;5307;42.548;22.968;2023-12-28T12:25:31;94643.25;;;12.01;63.73
10518;BME280;5307;42.548;22.968;2023-12-28T12:27:57;94645.22;;;11.59;62.47
10518;BME280;5307;42.548;22.968;2023-12-28T12:30:24;94644.34;;;11.62;62.58
10518;BME280;5307;42.548;22.968;2023-12-28T12:32:57;94642.09;;;11.73;62.32
10518;BME280;5307;42.548;22.968;2023-12-28T12:35:23;94637.03;;;11.59;62.73
10518;BME280;5307;42.548;22.968;2023-12-28T12:37:51;94631.41;;;11.50;62.18
10518;BME280;5307;42.548;22.968;2023-12-28T12:40:18;94643.91;;;11.64;62.27
10518;BME280;5307;42.548;22.968;2023-12-28T12:42:53;94645.41;;;11.52;62.21
10518;BME280;5307;42.548;22.968;2023-12-28T12:45:25;94632.06;;;11.54;62.76
10518;BME280;5307;42.548;22.968;2023-12-28T12:47:54;94621.91;;;11.54;62.95
10518;BME280;5307;42.548;22.968;2023-12-28T12:50:27;94615.91;;;11.59;62.94
10518;BME280;5307;42.548;22.968;2023-12-28T12:52:54;94615.59;;;11.70;62.55
10518;BME280;5307;42.548;22.968;2023-12-28T12:55:29;94608.38;;;11.76;62.33
10518;BME280;5307;42.548;22.968;2023-12-28T12:57:58;94615.94;;;11.72;62.07
10518;BME280;5307;42.548;22.968;2023-12-28T13:00:28;94601.03;;;11.73;61.98
10518;BME280;5307;42.548;22.968;2023-12-28T13:02:55;94605.84;;;11.69;61.15
10518;BME280;5307;42.548;22.968;2023-12-28T13:05:23;94620.84;;;11.77;61.01